sensor_id;sensor_type;location;lat;lon;timestamp;pressure;altitude;pressure_sealevel;temperature;humidity
8637;BME280;4356;49.068;8.658;2023-06-24T00:00:58;100729.69;;;27.02;37.53
8637;BME280;4356;49.068;8.658;2023-06-24T00:03:23;100736.03;;;27.03;37.89
8637;BME280;4356;49.068;8.658;2023-06-24T00:05:49;100725.25;;;27.01;37.88
8637;BME280;4356;49.068;8.658;2023-06-24T00:08:18;100715.00;;;26.97;37.59
8637;BME280;4356;49.068;8.658;2023-06-24T00:10:47;100721.63;;;26.96;37.70
8637;BME280;4356;49.068;8.658;2023-06-24T00:13:16;100725.75;;;26.98;38.02
8637;BME280;4356;49.068;8.658;2023-06-24T00:15:42;100715.84;;;26.97;37.72
8637;BME280;4356;49.068;8.658;2023-06-24T00:18:11;100715.75;;;26.92;37.87
8637;BME280;4356;49.068;8.658;2023-06-24T00:20:37;100714.69;;;26.93;37.91
8637;BME280;4356;49.068;8.658;2023-06-24T00:23:02;100721.53;;;26.91;37.83
8637;BME280;4356;49.068;8.658;2023-06-24T00:25:29;100729.53;;;26.92;37.86
8637;BME280;4356;49.068;8.658;2023-06-24T00:27:54;100726.78;;;26.92;38.00
8637;BME280;4356;49.068;8.658;2023-06-24T00:30:20;100728.16;;;26.90;38.07
8637;BME280;4356;49.068;8.658;2023-06-24T00:32:45;100724.56;;;26.89;37.81
8637;BME280;4356;49.068;8.658;2023-06-24T00:35:11;100714.53;;;26.83;37.77
8637;BME280;4356;49.068;8.658;2023-06-24T00:37:38;100727.84;;;26.86;38.06
8637;BME280;4356;49.068;8.658;2023-06-24T00:40:06;100723.66;;;26.84;37.80
8637;BME280;4356;49.068;8.658;2023-06-24T00:42:35;100719.25;;;26.83;38.15
8637;BME280;4356;49.068;8.658;2023-06-24T00:45:00;100715.66;;;26.82;37.95
8637;BME280;4356;49.068;8.658;2023-06-24T00:47:29;100719.25;;;26.83;37.87
8637;BME280;4356;49.068;8.658;2023-06-24T00:49:56;100709.81;;;26.79;38.13
8637;BME280;4356;49.068;8.658;2023-06-24T00:52:22;100720.56;;;26.80;38.24
8637;BME280;4356;49.068;8.658;2023-06-24T00:54:49;100707.00;;;26.74;37.96
8637;BME280;4356;49.068;8.658;2023-06-24T00:57:15;100711.94;;;26.72;38.06
8637;BME280;4356;49.068;8.658;2023-06-24T00:59:42;100720.78;;;26.74;38.05
8637;BME280;4356;49.068;8.658;2023-06-24T01:02:09;100724.03;;;26.71;38.00
8637;BME280;4356;49.068;8.658;2023-06-24T01:04:35;100727.63;;;26.71;37.94
8637;BME280;4356;49.068;8.658;2023-06-24T01:07:01;100712.06;;;26.65;38.24
8637;BME280;4356;49.068;8.658;2023-06-24T01:09:27;100727.91;;;26.70;38.14
8637;BME280;4356;49.068;8.658;2023-06-24T01:11:53;100722.03;;;26.66;38.18
8637;BME280;4356;49.068;8.658;2023-06-24T01:14:18;100723.94;;;26.66;38.22
8637;BME280;4356;49.068;8.658;2023-06-24T01:17:09;100725.63;;;26.67;38.10
8637;BME280;4356;49.068;8.658;2023-06-24T01:28:07;100724.41;;;26.58;38.03
8637;BME280;4356;49.068;8.658;2023-06-24T01:33:09;100721.88;;;26.56;38.08
8637;BME280;4356;49.068;8.658;2023-06-24T01:35:40;100722.66;;;26.52;38.40
8637;BME280;4356;49.068;8.658;2023-06-24T01:38:24;100721.00;;;26.51;38.21
8637;BME280;4356;49.068;8.658;2023-06-24T01:40:53;100721.00;;;26.51;38.21
8637;BME280;4356;49.068;8.658;2023-06-24T01:43:22;100724.56;;;26.51;38.43
8637;BME280;4356;49.068;8.658;2023-06-24T01:45:50;100725.34;;;26.47;38.46
8637;BME280;4356;49.068;8.658;2023-06-24T01:48:19;100712.66;;;26.45;38.41
8637;BME280;4356;49.068;8.658;2023-06-24T01:53:22;100725.09;;;26.48;38.58
8637;BME280;4356;49.068;8.658;2023-06-24T01:55:48;100716.50;;;26.44;38.19
8637;BME280;4356;49.068;8.658;2023-06-24T01:58:16;100711.84;;;26.45;38.24
8637;BME280;4356;49.068;8.658;2023-06-24T02:00:42;100706.31;;;26.45;38.50
8637;BME280;4356;49.068;8.658;2023-06-24T02:03:08;100711.50;;;26.41;38.55
8637;BME280;4356;49.068;8.658;2023-06-24T02:05:36;100709.81;;;26.40;38.33
8637;BME280;4356;49.068;8.658;2023-06-24T02:08:05;100714.19;;;26.36;38.58
8637;BME280;4356;49.068;8.658;2023-06-24T02:10:33;100700.59;;;26.30;38.68
8637;BME280;4356;49.068;8.658;2023-06-24T02:12:59;100695.59;;;26.27;38.51
8637;BME280;4356;49.068;8.658;2023-06-24T02:15:26;100705.59;;;26.33;38.57
8637;BME280;4356;49.068;8.658;2023-06-24T02:17:53;100691.69;;;26.23;38.40
8637;BME280;4356;49.068;8.658;2023-06-24T02:20:22;100708.91;;;26.35;38.27
8637;BME280;4356;49.068;8.658;2023-06-24T02:22:53;100696.94;;;26.24;38.38
8637;BME280;4356;49.068;8.658;2023-06-24T02:25:19;100713.53;;;26.29;38.56
8637;BME280;4356;49.068;8.658;2023-06-24T02:27:45;100711.34;;;26.31;38.61
8637;BME280;4356;49.068;8.658;2023-06-24T02:30:12;100701.91;;;26.27;38.53
8637;BME280;4356;49.068;8.658;2023-06-24T02:32:38;100712.94;;;26.27;38.50
8637;BME280;4356;49.068;8.658;2023-06-24T02:35:04;100704.94;;;26.26;38.57
8637;BME280;4356;49.068;8.658;2023-06-24T02:37:30;100717.88;;;26.25;38.88
8637;BME280;4356;49.068;8.658;2023-06-24T02:39:56;100711.56;;;26.25;38.82
8637;BME280;4356;49.068;8.658;2023-06-24T02:42:22;100708.69;;;26.20;38.67
8637;BME280;4356;49.068;8.658;2023-06-24T02:44:47;100720.03;;;26.23;38.95
8637;BME280;4356;49.068;8.658;2023-06-24T02:47:14;100710.97;;;26.23;38.98
8637;BME280;4356;49.068;8.658;2023-06-24T02:49:41;100715.06;;;26.20;38.80
8637;BME280;4356;49.068;8.658;2023-06-24T02:52:07;100715.31;;;26.19;38.57
8637;BME280;4356;49.068;8.658;2023-06-24T02:54:33;100713.41;;;26.19;38.74
8637;BME280;4356;49.068;8.658;2023-06-24T02:57:00;100716.91;;;26.15;38.91
8637;BME280;4356;49.068;8.658;2023-06-24T02:59:25;100712.22;;;26.15;38.83
8637;BME280;4356;49.068;8.658;2023-06-24T03:01:51;100715.81;;;26.16;38.82
8637;BME280;4356;49.068;8.658;2023-06-24T03:04:18;100711.66;;;26.13;38.88
8637;BME280;4356;49.068;8.658;2023-06-24T03:06:45;100712.16;;;26.10;38.98
8637;BME280;4356;49.068;8.658;2023-06-24T03:09:11;100715.97;;;26.09;38.87
8637;BME280;4356;49.068;8.658;2023-06-24T03:11:41;100718.47;;;26.11;39.03
8637;BME280;4356;49.068;8.658;2023-06-24T03:14:06;100722.06;;;26.11;38.81
8637;BME280;4356;49.068;8.658;2023-06-24T03:16:32;100717.34;;;26.07;38.79
8637;BME280;4356;49.068;8.658;2023-06-24T03:18:57;100716.75;;;26.05;38.76
8637;BME280;4356;49.068;8.658;2023-06-24T03:21:22;100726.94;;;26.04;38.89
8637;BME280;4356;49.068;8.658;2023-06-24T03:23:53;100727.16;;;26.03;39.05
8637;BME280;4356;49.068;8.658;2023-06-24T03:26:19;100732.44;;;26.04;38.84
8637;BME280;4356;49.068;8.658;2023-06-24T03:28:44;100733.28;;;26.05;39.05
8637;BME280;4356;49.068;8.658;2023-06-24T03:31:09;100744.75;;;26.02;38.89
8637;BME280;4356;49.068;8.658;2023-06-24T03:33:35;100735.69;;;26.01;39.07
8637;BME280;4356;49.068;8.658;2023-06-24T03:36:00;100736.50;;;26.02;38.78
8637;BME280;4356;49.068;8.658;2023-06-24T03:38:26;100739.50;;;26.00;38.77
8637;BME280;4356;49.068;8.658;2023-06-24T03:40:53;100736.66;;;25.95;38.98
8637;BME280;4356;49.068;8.658;2023-06-24T03:43:18;100737.50;;;25.96;38.69
8637;BME280;4356;49.068;8.658;2023-06-24T03:45:43;100738.59;;;25.95;38.83
8637;BME280;4356;49.068;8.658;2023-06-24T03:48:09;100737.78;;;25.94;38.99
8637;BME280;4356;49.068;8.658;2023-06-24T03:50:34;100743.03;;;25.96;39.01
8637;BME280;4356;49.068;8.658;2023-06-24T03:53:00;100750.19;;;25.97;39.02
8637;BME280;4356;49.068;8.658;2023-06-24T03:55:25;100742.69;;;25.92;38.96
8637;BME280;4356;49.068;8.658;2023-06-24T03:57:50;100753.44;;;25.94;39.16
8637;BME280;4356;49.068;8.658;2023-06-24T04:00:16;100750.94;;;25.92;39.12
8637;BME280;4356;49.068;8.658;2023-06-24T04:02:43;100765.53;;;25.93;39.09
8637;BME280;4356;49.068;8.658;2023-06-24T04:05:09;100757.53;;;25.91;39.18
8637;BME280;4356;49.068;8.658;2023-06-24T04:07:35;100764.13;;;25.90;39.26
8637;BME280;4356;49.068;8.658;2023-06-24T04:10:01;100761.38;;;25.90;39.31
8637;BME280;4356;49.068;8.658;2023-06-24T04:12:27;100764.63;;;25.87;38.98
8637;BME280;4356;49.068;8.658;2023-06-24T04:14:52;100770.72;;;25.89;39.16
8637;BME280;4356;49.068;8.658;2023-06-24T04:17:18;100767.38;;;25.87;39.31
8637;BME280;4356;49.068;8.658;2023-06-24T04:19:43;100764.88;;;25.86;39.02
8637;BME280;4356;49.068;8.658;2023-06-24T04:22:09;100769.31;;;25.87;39.06
8637;BME280;4356;49.068;8.658;2023-06-24T04:24:35;100770.13;;;25.87;39.48
8637;BME280;4356;49.068;8.658;2023-06-24T04:27:00;100769.31;;;25.87;39.26
8637;BME280;4356;49.068;8.658;2023-06-24T04:29:26;100773.13;;;25.86;39.12
8637;BME280;4356;49.068;8.658;2023-06-24T04:31:51;100772.81;;;25.82;39.35
8637;BME280;4356;49.068;8.658;2023-06-24T04:34:17;100770.63;;;25.84;39.24
8637;BME280;4356;49.068;8.658;2023-06-24T04:36:42;100781.66;;;25.84;39.33
8637;BME280;4356;49.068;8.658;2023-06-24T04:39:07;100778.91;;;25.84;39.29
8637;BME280;4356;49.068;8.658;2023-06-24T04:41:33;100783.34;;;25.85;39.47
8637;BME280;4356;49.068;8.658;2023-06-24T04:43:58;100781.06;;;25.82;39.23
8637;BME280;4356;49.068;8.658;2023-06-24T04:46:24;100777.25;;;25.83;39.28
8637;BME280;4356;49.068;8.658;2023-06-24T04:48:50;100783.34;;;25.85;39.13
8637;BME280;4356;49.068;8.658;2023-06-24T04:51:15;100769.97;;;25.77;39.16
8637;BME280;4356;49.068;8.658;2023-06-24T04:53:40;100782.16;;;25.81;39.18
8637;BME280;4356;49.068;8.658;2023-06-24T04:56:06;100784.06;;;25.81;39.30
8637;BME280;4356;49.068;8.658;2023-06-24T04:58:32;100788.72;;;25.80;39.25
8637;BME280;4356;49.068;8.658;2023-06-24T05:00:57;100783.22;;;25.80;39.53
8637;BME280;4356;49.068;8.658;2023-06-24T05:03:24;100791.25;;;25.82;39.26
8637;BME280;4356;49.068;8.658;2023-06-24T05:05:49;100781.56;;;25.79;39.35
8637;BME280;4356;49.068;8.658;2023-06-24T05:08:15;100795.69;;;25.83;39.44
8637;BME280;4356;49.068;8.658;2023-06-24T05:10:40;100786.56;;;25.82;39.32
8637;BME280;4356;49.068;8.658;2023-06-24T05:13:05;100783.81;;;25.82;39.23
8637;BME280;4356;49.068;8.658;2023-06-24T05:15:31;100785.66;;;25.77;39.39
8637;BME280;4356;49.068;8.658;2023-06-24T05:17:56;100787.06;;;25.79;39.46
8637;BME280;4356;49.068;8.658;2023-06-24T05:20:21;100801.19;;;25.83;39.51
8637;BME280;4356;49.068;8.658;2023-06-24T05:22:47;100802.28;;;25.82;39.51
8637;BME280;4356;49.068;8.658;2023-06-24T05:25:12;100796.19;;;25.80;39.45
8637;BME280;4356;49.068;8.658;2023-06-24T05:27:38;100788.31;;;25.72;39.46
8637;BME280;4356;49.068;8.658;2023-06-24T05:30:04;100795.94;;;25.81;39.37
8637;BME280;4356;49.068;8.658;2023-06-24T05:32:29;100799.53;;;25.82;39.49
8637;BME280;4356;49.068;8.658;2023-06-24T05:34:55;100803.09;;;25.82;39.51
8637;BME280;4356;49.068;8.658;2023-06-24T05:37:20;100799.28;;;25.83;39.41
8637;BME280;4356;49.068;8.658;2023-06-24T05:39:46;100811.94;;;25.84;39.46
8637;BME280;4356;49.068;8.658;2023-06-24T05:42:11;100811.44;;;25.87;39.51
8637;BME280;4356;49.068;8.658;2023-06-24T05:44:36;100801.78;;;25.85;39.39
8637;BME280;4356;49.068;8.658;2023-06-24T05:47:02;100801.50;;;25.86;39.63
8637;BME280;4356;49.068;8.658;2023-06-24T05:49:27;100799.88;;;25.85;39.53
8637;BME280;4356;49.068;8.658;2023-06-24T05:51:52;100804.88;;;25.88;39.50
8637;BME280;4356;49.068;8.658;2023-06-24T05:54:18;100806.50;;;25.89;39.39
8637;BME280;4356;49.068;8.658;2023-06-24T05:56:43;100800.78;;;25.91;39.37
8637;BME280;4356;49.068;8.658;2023-06-24T05:59:08;100814.31;;;25.92;39.15
8637;BME280;4356;49.068;8.658;2023-06-24T06:01:34;100804.09;;;25.93;39.17
8637;BME280;4356;49.068;8.658;2023-06-24T06:03:59;100809.94;;;25.96;39.07
8637;BME280;4356;49.068;8.658;2023-06-24T06:06:24;100795.59;;;25.94;39.29
8637;BME280;4356;49.068;8.658;2023-06-24T06:08:50;100800.88;;;25.96;39.39
8637;BME280;4356;49.068;8.658;2023-06-24T06:11:15;100794.84;;;25.99;39.29
8637;BME280;4356;49.068;8.658;2023-06-24T06:13:41;100799.03;;;26.01;39.21
8637;BME280;4356;49.068;8.658;2023-06-24T06:16:06;100796.28;;;26.01;39.37
8637;BME280;4356;49.068;8.658;2023-06-24T06:18:32;100793.28;;;26.03;39.07
8637;BME280;4356;49.068;8.658;2023-06-24T06:20:58;100793.88;;;26.05;39.22
8637;BME280;4356;49.068;8.658;2023-06-24T06:23:23;100797.72;;;26.04;39.04
8637;BME280;4356;49.068;8.658;2023-06-24T06:25:50;100787.03;;;26.07;39.16
8637;BME280;4356;49.068;8.658;2023-06-24T06:28:15;100796.22;;;26.13;39.30
8637;BME280;4356;49.068;8.658;2023-06-24T06:30:41;100794.88;;;26.15;38.94
8637;BME280;4356;49.068;8.658;2023-06-24T06:33:06;100793.56;;;26.18;38.79
8637;BME280;4356;49.068;8.658;2023-06-24T06:35:31;100790.44;;;26.14;38.87
8637;BME280;4356;49.068;8.658;2023-06-24T06:37:57;100804.91;;;26.21;39.07
8637;BME280;4356;49.068;8.658;2023-06-24T06:40:23;100798.88;;;26.24;38.85
8637;BME280;4356;49.068;8.658;2023-06-24T06:42:49;100800.06;;;26.28;38.80
8637;BME280;4356;49.068;8.658;2023-06-24T06:45:14;100794.03;;;26.31;38.91
8637;BME280;4356;49.068;8.658;2023-06-24T06:47:40;100796.53;;;26.33;38.81
8637;BME280;4356;49.068;8.658;2023-06-24T06:50:05;100788.84;;;26.35;39.00
8637;BME280;4356;49.068;8.658;2023-06-24T06:52:31;100782.50;;;26.34;38.88
8637;BME280;4356;49.068;8.658;2023-06-24T06:54:56;100779.00;;;26.39;38.58
8637;BME280;4356;49.068;8.658;2023-06-24T06:57:22;100790.94;;;26.44;38.61
8637;BME280;4356;49.068;8.658;2023-06-24T06:59:47;100776.03;;;26.45;38.39
8637;BME280;4356;49.068;8.658;2023-06-24T07:02:15;100777.72;;;26.47;38.82
8637;BME280;4356;49.068;8.658;2023-06-24T07:04:40;100773.63;;;26.49;38.51
8637;BME280;4356;49.068;8.658;2023-06-24T07:07:05;100786.13;;;26.57;38.55
8637;BME280;4356;49.068;8.658;2023-06-24T07:09:31;100785.66;;;26.60;38.46
8637;BME280;4356;49.068;8.658;2023-06-24T07:11:56;100774.63;;;26.60;38.59
8637;BME280;4356;49.068;8.658;2023-06-24T07:14:21;100784.88;;;26.64;38.33
8637;BME280;4356;49.068;8.658;2023-06-24T07:16:47;100766.41;;;26.65;38.51
8637;BME280;4356;49.068;8.658;2023-06-24T07:19:12;100781.94;;;26.71;38.25
8637;BME280;4356;49.068;8.658;2023-06-24T07:21:38;100781.47;;;26.74;38.62
8637;BME280;4356;49.068;8.658;2023-06-24T07:24:04;100775.94;;;26.74;38.14
8637;BME280;4356;49.068;8.658;2023-06-24T07:26:29;100785.69;;;26.81;38.12
8637;BME280;4356;49.068;8.658;2023-06-24T07:28:59;100788.19;;;26.83;38.03
8637;BME280;4356;49.068;8.658;2023-06-24T07:31:24;100794.34;;;26.90;38.20
8637;BME280;4356;49.068;8.658;2023-06-24T07:33:50;100792.75;;;26.94;38.04
8637;BME280;4356;49.068;8.658;2023-06-24T07:36:15;100776.97;;;26.89;38.00
8637;BME280;4356;49.068;8.658;2023-06-24T07:38:40;100780.94;;;26.98;37.97
8637;BME280;4356;49.068;8.658;2023-06-24T07:41:06;100778.50;;;27.02;38.18
8637;BME280;4356;49.068;8.658;2023-06-24T07:43:31;100784.59;;;27.04;37.82
8637;BME280;4356;49.068;8.658;2023-06-24T07:45:57;100785.75;;;27.08;37.87
8637;BME280;4356;49.068;8.658;2023-06-24T07:48:22;100785.22;;;27.11;37.88
8637;BME280;4356;49.068;8.658;2023-06-24T07:50:47;100786.38;;;27.15;37.89
8637;BME280;4356;49.068;8.658;2023-06-24T07:53:13;100783.09;;;27.18;37.75
8637;BME280;4356;49.068;8.658;2023-06-24T07:55:38;100782.59;;;27.21;37.73
8637;BME280;4356;49.068;8.658;2023-06-24T07:58:04;100779.06;;;27.25;37.72
8637;BME280;4356;49.068;8.658;2023-06-24T08:00:30;100770.50;;;27.27;37.86
8637;BME280;4356;49.068;8.658;2023-06-24T08:02:57;100770.28;;;27.28;37.82
8637;BME280;4356;49.068;8.658;2023-06-24T08:05:23;100776.94;;;27.32;37.52
8637;BME280;4356;49.068;8.658;2023-06-24T08:07:50;100773.69;;;27.35;37.81
8637;BME280;4356;49.068;8.658;2023-06-24T08:10:15;100774.28;;;27.37;37.45
8637;BME280;4356;49.068;8.658;2023-06-24T08:12:41;100788.44;;;27.46;37.30
8637;BME280;4356;49.068;8.658;2023-06-24T08:15:06;100772.44;;;27.48;37.37
8637;BME280;4356;49.068;8.658;2023-06-24T08:17:32;100773.84;;;27.51;37.31
8637;BME280;4356;49.068;8.658;2023-06-24T08:19:57;100762.88;;;27.56;37.33
8637;BME280;4356;49.068;8.658;2023-06-24T08:22:23;100769.78;;;27.58;37.46
8637;BME280;4356;49.068;8.658;2023-06-24T08:24:48;100759.88;;;27.62;36.85
8637;BME280;4356;49.068;8.658;2023-06-24T08:27:14;100757.13;;;27.62;37.22
8637;BME280;4356;49.068;8.658;2023-06-24T08:29:39;100762.16;;;27.70;37.04
8637;BME280;4356;49.068;8.658;2023-06-24T08:32:05;100752.78;;;27.71;37.18
8637;BME280;4356;49.068;8.658;2023-06-24T08:34:32;100755.00;;;27.74;36.91
8637;BME280;4356;49.068;8.658;2023-06-24T08:36:57;100758.66;;;27.80;37.10
8637;BME280;4356;49.068;8.658;2023-06-24T08:39:23;100748.44;;;27.80;36.89
8637;BME280;4356;49.068;8.658;2023-06-24T08:41:49;100752.91;;;27.86;36.85
8637;BME280;4356;49.068;8.658;2023-06-24T08:44:14;100757.63;;;27.91;36.77
8637;BME280;4356;49.068;8.658;2023-06-24T08:46:40;100749.97;;;27.93;36.80
8637;BME280;4356;49.068;8.658;2023-06-24T08:52:04;100747.25;;;28.03;36.50
8637;BME280;4356;49.068;8.658;2023-06-24T08:54:35;100752.84;;;28.08;36.25
8637;BME280;4356;49.068;8.658;2023-06-24T08:57:02;100747.06;;;28.09;36.53
8637;BME280;4356;49.068;8.658;2023-06-24T08:59:30;100756.22;;;28.15;36.18
8637;BME280;4356;49.068;8.658;2023-06-24T09:01:56;100750.72;;;28.20;36.23
8637;BME280;4356;49.068;8.658;2023-06-24T09:04:21;100751.59;;;28.25;36.24
8637;BME280;4356;49.068;8.658;2023-06-24T09:06:47;100756.56;;;28.28;36.05
8637;BME280;4356;49.068;8.658;2023-06-24T09:09:19;100753.03;;;28.33;36.05
8637;BME280;4356;49.068;8.658;2023-06-24T09:11:56;100748.06;;;28.35;36.17
8637;BME280;4356;49.068;8.658;2023-06-24T09:14:27;100739.78;;;28.40;35.90
8637;BME280;4356;49.068;8.658;2023-06-24T09:16:55;100742.84;;;28.43;35.83
8637;BME280;4356;49.068;8.658;2023-06-24T09:19:26;100742.31;;;28.47;35.88
8637;BME280;4356;49.068;8.658;2023-06-24T09:21:56;100739.34;;;28.53;35.87
8637;BME280;4356;49.068;8.658;2023-06-24T09:24:27;100737.16;;;28.55;35.58
8637;BME280;4356;49.068;8.658;2023-06-24T09:26:55;100736.31;;;28.60;35.61
8637;BME280;4356;49.068;8.658;2023-06-24T09:29:25;100733.28;;;28.61;35.66
8637;BME280;4356;49.068;8.658;2023-06-24T09:31:50;100727.81;;;28.66;35.62
8637;BME280;4356;49.068;8.658;2023-06-24T09:34:21;100723.38;;;28.70;35.54
8637;BME280;4356;49.068;8.658;2023-06-24T09:36:54;100730.88;;;28.75;35.39
8637;BME280;4356;49.068;8.658;2023-06-24T09:39:23;100733.09;;;28.78;35.30
8637;BME280;4356;49.068;8.658;2023-06-24T09:41:56;100725.34;;;28.80;35.46
8637;BME280;4356;49.068;8.658;2023-06-24T09:44:22;100723.72;;;28.84;35.61
8637;BME280;4356;49.068;8.658;2023-06-24T09:46:47;100721.25;;;28.87;35.45
8637;BME280;4356;49.068;8.658;2023-06-24T09:49:13;100707.97;;;28.89;35.49
8637;BME280;4356;49.068;8.658;2023-06-24T09:51:40;100701.59;;;28.94;35.10
8637;BME280;4356;49.068;8.658;2023-06-24T09:54:08;100703.84;;;28.97;35.26
8637;BME280;4356;49.068;8.658;2023-06-24T09:56:38;100701.09;;;28.97;35.25
8637;BME280;4356;49.068;8.658;2023-06-24T09:59:05;100708.00;;;29.04;35.09
8637;BME280;4356;49.068;8.658;2023-06-24T10:01:43;100712.16;;;29.07;34.90
8637;BME280;4356;49.068;8.658;2023-06-24T10:04:13;100711.41;;;29.11;34.77
8637;BME280;4356;49.068;8.658;2023-06-24T10:06:38;100696.44;;;29.12;35.01
8637;BME280;4356;49.068;8.658;2023-06-24T10:09:04;100691.75;;;29.13;34.93
8637;BME280;4356;49.068;8.658;2023-06-24T10:11:30;100683.44;;;29.18;34.96
8637;BME280;4356;49.068;8.658;2023-06-24T10:13:56;100688.41;;;29.21;35.04
8637;BME280;4356;49.068;8.658;2023-06-24T10:16:22;100686.78;;;29.25;34.91
8637;BME280;4356;49.068;8.658;2023-06-24T10:18:48;100688.97;;;29.28;34.64
8637;BME280;4356;49.068;8.658;2023-06-24T10:21:15;100695.63;;;29.32;34.68
8637;BME280;4356;49.068;8.658;2023-06-24T10:23:42;100684.84;;;29.35;34.88
8637;BME280;4356;49.068;8.658;2023-06-24T10:26:29;100673.47;;;29.37;34.57
8637;BME280;4356;49.068;8.658;2023-06-24T10:39:57;100665.19;;;29.52;34.71
8637;BME280;4356;49.068;8.658;2023-06-24T10:44:57;100652.19;;;29.58;34.82
8637;BME280;4356;49.068;8.658;2023-06-24T10:47:24;100652.44;;;29.61;34.49
8637;BME280;4356;49.068;8.658;2023-06-24T10:49:50;100654.41;;;29.66;34.53
8637;BME280;4356;49.068;8.658;2023-06-24T10:52:18;100648.88;;;29.66;34.15
8637;BME280;4356;49.068;8.658;2023-06-24T10:54:45;100649.16;;;29.69;34.39
8637;BME280;4356;49.068;8.658;2023-06-24T10:57:12;100642.50;;;29.75;34.00
8637;BME280;4356;49.068;8.658;2023-06-24T10:59:41;100647.78;;;29.77;34.22
8637;BME280;4356;49.068;8.658;2023-06-24T11:02:14;100629.75;;;29.79;34.11
8637;BME280;4356;49.068;8.658;2023-06-24T11:04:50;100643.59;;;29.84;34.20
8637;BME280;4356;49.068;8.658;2023-06-24T11:07:24;100633.06;;;29.86;33.83
8637;BME280;4356;49.068;8.658;2023-06-24T11:09:52;100634.16;;;29.90;34.11
8637;BME280;4356;49.068;8.658;2023-06-24T11:12:19;100623.09;;;29.90;34.19
8637;BME280;4356;49.068;8.658;2023-06-24T11:14:45;100621.97;;;29.96;33.74
8637;BME280;4356;49.068;8.658;2023-06-24T11:17:10;100624.16;;;29.99;34.01
8637;BME280;4356;49.068;8.658;2023-06-24T11:19:36;100622.78;;;30.02;33.61
8637;BME280;4356;49.068;8.658;2023-06-24T11:22:05;100619.44;;;30.05;33.94
8637;BME280;4356;49.068;8.658;2023-06-24T11:24:31;100614.16;;;30.08;34.01
8637;BME280;4356;49.068;8.658;2023-06-24T11:26:57;100611.66;;;30.12;33.67
8637;BME280;4356;49.068;8.658;2023-06-24T11:29:23;100611.38;;;30.13;33.96
8637;BME280;4356;49.068;8.658;2023-06-24T11:31:49;100612.75;;;30.16;33.87
8637;BME280;4356;49.068;8.658;2023-06-24T11:34:15;100608.31;;;30.20;34.05
8637;BME280;4356;49.068;8.658;2023-06-24T11:36:40;100606.91;;;30.22;33.67
8637;BME280;4356;49.068;8.658;2023-06-24T11:39:06;100602.75;;;30.25;33.85
8637;BME280;4356;49.068;8.658;2023-06-24T11:41:31;100600.81;;;30.30;33.84
8637;BME280;4356;49.068;8.658;2023-06-24T11:44:00;100597.50;;;30.28;33.65
8637;BME280;4356;49.068;8.658;2023-06-24T11:46:29;100599.41;;;30.33;33.46
8637;BME280;4356;49.068;8.658;2023-06-24T11:49:08;100592.19;;;30.37;33.48
8637;BME280;4356;49.068;8.658;2023-06-24T11:51:45;100592.44;;;30.41;33.68
8637;BME280;4356;49.068;8.658;2023-06-24T11:54:14;100586.88;;;30.41;33.69
8637;BME280;4356;49.068;8.658;2023-06-24T11:56:41;100592.44;;;30.46;33.41
8637;BME280;4356;49.068;8.658;2023-06-24T11:59:25;100583.53;;;30.49;33.77
8637;BME280;4356;49.068;8.658;2023-06-24T12:01:56;100576.84;;;30.50;33.45
8637;BME280;4356;49.068;8.658;2023-06-24T12:04:28;100571.56;;;30.53;33.34
8637;BME280;4356;49.068;8.658;2023-06-24T12:06:53;100571.31;;;30.55;33.27
8637;BME280;4356;49.068;8.658;2023-06-24T12:09:19;100574.34;;;30.58;33.58
8637;BME280;4356;49.068;8.658;2023-06-24T12:11:45;100570.13;;;30.61;33.69
8637;BME280;4356;49.068;8.658;2023-06-24T12:14:11;100558.75;;;30.62;33.65
8637;BME280;4356;49.068;8.658;2023-06-24T12:16:39;100558.75;;;30.67;33.39
8637;BME280;4356;49.068;8.658;2023-06-24T12:19:05;100561.78;;;30.66;33.88
8637;BME280;4356;49.068;8.658;2023-06-24T12:21:30;100552.06;;;30.68;33.44
8637;BME280;4356;49.068;8.658;2023-06-24T12:23:56;100550.09;;;30.74;33.38
8637;BME280;4356;49.068;8.658;2023-06-24T12:26:22;100540.63;;;30.75;33.67
8637;BME280;4356;49.068;8.658;2023-06-24T12:28:47;100547.25;;;30.79;33.72
8637;BME280;4356;49.068;8.658;2023-06-24T12:31:12;100544.78;;;30.82;33.68
8637;BME280;4356;49.068;8.658;2023-06-24T12:33:38;100546.16;;;30.85;33.77
8637;BME280;4356;49.068;8.658;2023-06-24T12:36:03;100535.91;;;30.85;33.55
8637;BME280;4356;49.068;8.658;2023-06-24T12:38:29;100546.41;;;30.88;32.76
8637;BME280;4356;49.068;8.658;2023-06-24T12:40:54;100542.22;;;30.91;33.38
8637;BME280;4356;49.068;8.658;2023-06-24T12:43:19;100539.72;;;30.94;33.24
8637;BME280;4356;49.068;8.658;2023-06-24T12:45:45;100538.28;;;30.97;33.08
8637;BME280;4356;49.068;8.658;2023-06-24T12:48:12;100534.41;;;30.98;33.30
8637;BME280;4356;49.068;8.658;2023-06-24T12:50:38;100526.63;;;31.00;33.19
8637;BME280;4356;49.068;8.658;2023-06-24T12:53:03;100519.63;;;31.02;33.64
8637;BME280;4356;49.068;8.658;2023-06-24T12:55:29;100525.97;;;31.08;33.63
8637;BME280;4356;49.068;8.658;2023-06-24T12:57:55;100525.69;;;31.09;33.28
8637;BME280;4356;49.068;8.658;2023-06-24T13:00:22;100516.78;;;31.12;33.27
8637;BME280;4356;49.068;8.658;2023-06-24T13:02:48;100522.03;;;31.14;32.85
8637;BME280;4356;49.068;8.658;2023-06-24T13:05:13;100521.44;;;31.17;33.25
8637;BME280;4356;49.068;8.658;2023-06-24T13:07:39;100520.06;;;31.19;32.74
8637;BME280;4356;49.068;8.658;2023-06-24T13:10:05;100506.47;;;31.18;32.73
8637;BME280;4356;49.068;8.658;2023-06-24T13:12:33;100520.31;;;31.23;32.31
8637;BME280;4356;49.068;8.658;2023-06-24T13:14:59;100514.16;;;31.26;32.99
8637;BME280;4356;49.068;8.658;2023-06-24T13:17:24;100513.56;;;31.29;32.48
8637;BME280;4356;49.068;8.658;2023-06-24T13:19:50;100512.44;;;31.30;32.52
8637;BME280;4356;49.068;8.658;2023-06-24T13:22:16;100510.22;;;31.32;32.06
8637;BME280;4356;49.068;8.658;2023-06-24T13:24:42;100503.22;;;31.34;32.10
8637;BME280;4356;49.068;8.658;2023-06-24T13:27:07;100500.22;;;31.36;32.34
8637;BME280;4356;49.068;8.658;2023-06-24T13:29:33;100500.22;;;31.36;32.05
8637;BME280;4356;49.068;8.658;2023-06-24T13:31:58;100493.84;;;31.30;32.18
8637;BME280;4356;49.068;8.658;2023-06-24T13:34:24;100510.97;;;31.43;32.08
8637;BME280;4356;49.068;8.658;2023-06-24T13:36:49;100499.03;;;31.42;31.96